Time;durP1;ratioP1;P1;durP2;ratioP2;P2;SDS_P1;SDS_P2;PMS_P1;PMS_P2;Temp;Humidity;BMP_temperature;BMP_pressure;BME280_temperature;BME280_humidity;BME280_pressure;Samples;Min_cycle;Max_cycle;Signal;HPM_P1;HPM_P2
2023/12/01 00:00:33;;;;;;;33.92;20.20;;;-0.20;99.90;;;;;;5015096;28;20053;-73
2023/12/01 00:02:59;;;;;;;33.58;21.45;;;-0.20;99.90;;;;;;5031762;28;20127;-73
2023/12/01 00:05:25;;;;;;;30.55;20.38;;;-0.30;99.90;;;;;;5032774;28;20429;-73
2023/12/01 00:07:50;;;;;;;35.67;21.35;;;-0.20;99.90;;;;;;5032514;28;20067;-73
2023/12/01 00:10:16;;;;;;;32.55;20.02;;;-0.40;99.90;;;;;;5031716;28;20111;-74
2023/12/01 00:12:42;;;;;;;33.45;21.88;;;-0.40;99.90;;;;;;5031369;28;20076;-73
2023/12/01 00:15:08;;;;;;;38.78;21.95;;;-0.40;99.90;;;;;;5015299;28;20104;-74
2023/12/01 00:17:33;;;;;;;32.53;21.67;;;-0.40;99.90;;;;;;5031088;28;20046;-73
2023/12/01 00:19:59;;;;;;;32.13;21.58;;;-0.40;99.90;;;;;;5031504;28;20045;-73
2023/12/01 00:22:25;;;;;;;29.15;21.10;;;-0.40;99.90;;;;;;5030841;28;20132;-73
2023/12/01 00:24:51;;;;;;;31.25;21.65;;;-0.30;99.90;;;;;;5031468;28;20102;-74
2023/12/01 00:27:16;;;;;;;30.88;21.40;;;-0.50;99.90;;;;;;5032607;28;20041;-74
2023/12/01 00:29:42;;;;;;;32.30;21.52;;;-0.50;99.90;;;;;;5029659;28;20145;-73
2023/12/01 00:32:08;;;;;;;34.25;21.65;;;-0.50;99.90;;;;;;5032263;28;20127;-74
2023/12/01 00:34:33;;;;;;;30.63;21.33;;;-0.50;99.90;;;;;;5031140;28;20495;-73
2023/12/01 00:36:59;;;;;;;32.58;22.08;;;-0.50;99.90;;;;;;5032481;28;20479;-73
2023/12/01 00:39:26;;;;;;;33.40;21.85;;;-0.50;99.90;;;;;;5031075;28;20396;-73
2023/12/01 00:41:52;;;;;;;30.45;20.90;;;-0.50;99.90;;;;;;5014632;28;20215;-74
2023/12/01 00:44:17;;;;;;;32.17;21.13;;;-0.50;99.90;;;;;;5032148;28;20402;-74
2023/12/01 00:46:43;;;;;;;30.70;20.70;;;-0.50;99.90;;;;;;5031702;28;20140;-73
2023/12/01 00:49:10;;;;;;;31.00;20.30;;;0.00;99.90;;;;;;5032027;28;20446;-73
2023/12/01 00:51:36;;;;;;;28.15;19.75;;;-0.60;99.90;;;;;;5031913;28;20046;-73
2023/12/01 00:54:01;;;;;;;30.88;20.98;;;-0.40;99.90;;;;;;5032953;28;20076;-74
2023/12/01 00:56:28;;;;;;;35.55;22.40;;;-0.70;99.90;;;;;;5034829;28;20049;-74
2023/12/01 00:58:53;;;;;;;30.67;21.52;;;-0.70;99.90;;;;;;5036360;28;20053;-75
2023/12/01 01:01:19;;;;;;;35.67;23.20;;;-0.70;99.90;;;;;;5040080;28;20049;-74
2023/12/01 01:03:45;;;;;;;36.03;22.63;;;-0.70;99.90;;;;;;5038510;28;20107;-74
2023/12/01 01:06:10;;;;;;;39.28;23.42;;;-0.60;99.90;;;;;;5036939;28;20037;-74
2023/12/01 01:08:36;;;;;;;38.78;23.77;;;-0.60;99.90;;;;;;5035739;28;20053;-74
2023/12/01 01:11:02;;;;;;;39.60;24.02;;;-0.10;99.90;;;;;;5036116;28;20556;-74
2023/12/01 01:13:28;;;;;;;41.17;24.35;;;-0.70;99.90;;;;;;5035011;28;20388;-74
2023/12/01 01:15:54;;;;;;;43.20;25.85;;;-0.70;99.90;;;;;;5036261;28;20037;-74
2023/12/01 01:18:20;;;;;;;42.33;25.27;;;-0.80;99.90;;;;;;5034728;28;20055;-74
2023/12/01 01:20:47;;;;;;;41.05;24.35;;;-0.60;99.90;;;;;;5034490;28;20128;-74
2023/12/01 01:23:12;;;;;;;43.55;25.65;;;-0.80;99.90;;;;;;5035812;28;20489;-75
2023/12/01 01:25:38;;;;;;;46.08;26.35;;;-0.90;99.90;;;;;;5018132;28;20085;-75
2023/12/01 01:28:04;;;;;;;47.72;27.38;;;-0.90;99.90;;;;;;5034510;28;20056;-74
2023/12/01 01:30:30;;;;;;;47.28;27.10;;;-0.90;99.90;;;;;;5034554;28;20076;-74
2023/12/01 01:32:56;;;;;;;49.78;28.60;;;-0.50;99.90;;;;;;5035415;28;20049;-74
2023/12/01 01:35:21;;;;;;;50.25;27.77;;;-1.00;99.90;;;;;;5034742;28;20132;-74
2023/12/01 01:37:47;;;;;;;44.95;26.17;;;-1.10;99.90;;;;;;5035321;28;20484;-74
2023/12/01 01:40:13;;;;;;;45.72;27.20;;;-1.00;99.90;;;;;;5035834;28;20463;-74
2023/12/01 01:42:39;;;;;;;46.50;25.92;;;-1.10;99.90;;;;;;5033926;28;20085;-74
2023/12/01 01:45:06;;;;;;;47.97;27.50;;;-1.10;99.90;;;;;;5034311;28;20088;-75
2023/12/01 01:47:35;;;;;;;47.38;26.58;;;-1.10;99.90;;;;;;5035547;28;20050;-74
2023/12/01 01:50:03;;;;;;;50.15;26.65;;;-1.10;99.90;;;;;;5034074;28;20049;-74
2023/12/01 01:52:29;;;;;;;44.95;26.38;;;-1.10;99.90;;;;;;5035552;28;20037;-74
2023/12/01 01:54:56;;;;;;;47.90;26.20;;;-1.00;99.90;;;;;;5034921;28;20045;-74
2023/12/01 01:57:22;;;;;;;51.47;29.13;;;-1.10;99.90;;;;;;5017759;28;20053;-75
2023/12/01 01:59:48;;;;;;;52.28;28.25;;;-1.10;99.90;;;;;;5033702;28;20060;-75
2023/12/01 02:02:14;;;;;;;54.58;29.08;;;-1.00;99.90;;;;;;5035199;28;20060;-75
2023/12/01 02:04:40;;;;;;;51.75;27.75;;;-1.20;99.90;;;;;;5034640;28;20052;-74
2023/12/01 02:07:08;;;;;;;55.22;29.83;;;-1.20;99.90;;;;;;5035114;28;20053;-74
2023/12/01 02:09:34;;;;;;;52.70;29.10;;;-0.80;99.90;;;;;;5033875;28;20045;-74
2023/12/01 02:12:00;;;;;;;55.47;29.55;;;-1.20;99.90;;;;;;5034545;28;20053;-74
2023/12/01 02:14:26;;;;;;;52.72;28.75;;;-1.20;99.90;;;;;;5034885;28;20099;-74
2023/12/01 02:16:52;;;;;;;51.28;28.65;;;-0.70;99.90;;;;;;5034557;28;20049;-73
2023/12/01 02:19:18;;;;;;;54.13;28.45;;;-1.20;99.90;;;;;;5033896;28;20057;-75
2023/12/01 02:21:47;;;;;;;49.83;27.92;;;-0.60;99.90;;;;;;5034452;28;20056;-74
2023/12/01 02:24:14;;;;;;;55.63;29.85;;;-1.10;99.90;;;;;;5033704;28;20053;-76
2023/12/01 02:26:39;;;;;;;50.45;27.85;;;-1.10;99.90;;;;;;5034343;28;20049;-74
2023/12/01 02:29:06;;;;;;;57.42;29.85;;;-1.10;99.90;;;;;;5034265;28;20123;-74
2023/12/01 02:31:32;;;;;;;51.90;27.70;;;-1.00;99.90;;;;;;5034572;28;20057;-75
2023/12/01 02:33:59;;;;;;;55.20;28.98;;;-1.00;99.90;;;;;;5034289;28;20053;-75
2023/12/01 02:36:24;;;;;;;54.50;29.33;;;-1.00;99.90;;;;;;5033394;28;20399;-74
2023/12/01 02:38:50;;;;;;;50.67;28.35;;;-1.00;99.90;;;;;;5034255;28;20037;-75
2023/12/01 02:41:17;;;;;;;57.13;28.92;;;-1.10;99.90;;;;;;5033334;28;20406;-74
2023/12/01 02:43:43;;;;;;;60.40;29.55;;;-1.10;99.90;;;;;;5033854;28;20085;-74
2023/12/01 02:46:12;;;;;;;51.70;29.17;;;-1.10;99.90;;;;;;5033016;28;20522;-74
2023/12/01 02:48:38;;;;;;;51.22;28.38;;;-1.20;99.90;;;;;;5033586;28;20128;-75
2023/12/01 02:51:05;;;;;;;55.05;28.77;;;-1.20;99.90;;;;;;5033890;28;20072;-75
2023/12/01 02:53:31;;;;;;;47.50;27.10;;;-1.20;99.90;;;;;;5034041;28;20129;-75
2023/12/01 02:55:56;;;;;;;46.65;26.67;;;-1.30;99.90;;;;;;5033857;28;20137;-75
2023/12/01 02:58:23;;;;;;;52.80;28.42;;;-1.30;99.90;;;;;;5034061;28;20509;-75
2023/12/01 03:00:49;;;;;;;50.72;27.80;;;-1.30;99.90;;;;;;5033606;28;20403;-74
2023/12/01 03:03:15;;;;;;;50.15;27.90;;;-1.40;99.90;;;;;;5032667;28;20041;-75
2023/12/01 03:05:40;;;;;;;49.45;26.58;;;-1.40;99.90;;;;;;5034010;28;20146;-75
2023/12/01 03:08:06;;;;;;;46.90;26.25;;;-1.40;99.90;;;;;;5033480;28;20045;-75
2023/12/01 03:10:33;;;;;;;47.60;26.65;;;-1.40;99.90;;;;;;5033934;28;20487;-75
2023/12/01 03:12:58;;;;;;;51.65;28.38;;;-1.40;99.90;;;;;;5032080;28;20038;-75
2023/12/01 03:15:25;;;;;;;47.53;27.08;;;-0.90;99.90;;;;;;5032725;28;20056;-75
2023/12/01 03:17:51;;;;;;;49.47;27.58;;;-1.50;99.90;;;;;;5032803;28;20096;-74
2023/12/01 03:20:16;;;;;;;48.50;27.85;;;-1.50;99.90;;;;;;5032613;28;20049;-75
2023/12/01 03:22:44;;;;;;;48.08;27.52;;;-1.50;99.90;;;;;;5033596;28;20041;-75
2023/12/01 03:25:11;;;;;;;47.60;26.40;;;-1.50;99.90;;;;;;5033699;28;20144;-74
2023/12/01 03:27:41;;;;;;;49.63;27.85;;;-1.50;99.90;;;;;;5031813;28;20045;-74
2023/12/01 03:30:14;;;;;;;49.83;27.55;;;-1.10;99.90;;;;;;5033133;28;20085;-75
2023/12/01 03:32:51;;;;;;;50.70;28.70;;;-1.60;99.90;;;;;;5033460;28;20045;-75
2023/12/01 03:35:20;;;;;;;47.20;26.42;;;-1.60;99.90;;;;;;5033231;28;20049;-75
2023/12/01 03:37:46;;;;;;;49.72;28.08;;;-1.60;99.90;;;;;;5033431;28;20041;-75
2023/12/01 03:40:12;;;;;;;46.00;26.02;;;-1.60;99.90;;;;;;5031672;28;20049;-75
2023/12/01 03:42:46;;;;;;;45.03;26.48;;;-1.70;99.90;;;;;;5033272;28;20042;-75
2023/12/01 03:45:13;;;;;;;49.20;27.37;;;-1.70;99.90;;;;;;5032845;28;20088;-75
2023/12/01 03:47:40;;;;;;;44.70;25.83;;;-1.70;99.90;;;;;;5033283;28;20316;-75
2023/12/01 03:50:11;;;;;;;53.13;28.45;;;-1.70;99.90;;;;;;5031793;28;20054;-73
2023/12/01 03:52:41;;;;;;;43.88;26.10;;;-1.70;99.90;;;;;;5031877;28;20053;-72
2023/12/01 03:55:09;;;;;;;46.78;27.20;;;-1.70;99.90;;;;;;5031540;28;20053;-74
2023/12/01 03:57:34;;;;;;;47.63;27.77;;;-1.70;99.90;;;;;;5033041;28;20053;-75
2023/12/01 04:00:00;;;;;;;47.72;28.33;;;-1.70;99.90;;;;;;5032465;28;20045;-73
2023/12/01 04:02:26;;;;;;;48.55;27.60;;;-1.80;99.90;;;;;;5015193;28;20042;-74
2023/12/01 04:04:53;;;;;;;44.22;26.83;;;-1.80;99.90;;;;;;5031615;28;20056;-73
2023/12/01 04:07:18;;;;;;;48.70;28.38;;;-1.80;99.90;;;;;;5031960;28;20046;-74
2023/12/01 04:09:44;;;;;;;45.70;26.90;;;-1.80;99.90;;;;;;5015576;28;20388;-73
2023/12/01 04:12:10;;;;;;;43.28;25.80;;;-1.70;99.90;;;;;;5032585;28;20088;-74
2023/12/01 04:14:35;;;;;;;42.28;23.92;;;-1.80;99.90;;;;;;5031740;28;20554;-74
2023/12/01 04:17:08;;;;;;;41.90;23.75;;;-1.80;99.90;;;;;;5030881;28;20177;-73
2023/12/01 04:19:38;;;;;;;38.92;22.70;;;-1.70;99.90;;;;;;5015277;28;20053;-75
2023/12/01 04:22:05;;;;;;;37.78;22.98;;;-1.70;99.90;;;;;;5032079;28;20087;-74
2023/12/01 04:24:35;;;;;;;42.75;24.80;;;-1.00;99.90;;;;;;5032603;28;20430;-74
2023/12/01 04:27:02;;;;;;;39.28;23.48;;;-1.80;99.90;;;;;;5032477;28;20107;-73
2023/12/01 04:29:31;;;;;;;41.55;24.45;;;-1.80;99.90;;;;;;5014135;28;20053;-74
2023/12/01 04:31:57;;;;;;;40.53;24.27;;;-1.80;99.90;;;;;;5032120;28;20119;-72
2023/12/01 04:34:26;;;;;;;40.47;23.92;;;-1.80;99.90;;;;;;5032242;28;20046;-74
2023/12/01 04:36:52;;;;;;;42.85;24.88;;;-1.80;99.90;;;;;;5032481;28;20053;-73
2023/12/01 04:39:18;;;;;;;44.97;25.15;;;-1.10;99.90;;;;;;5031103;28;20099;-73
2023/12/01 04:41:44;;;;;;;40.08;24.35;;;-1.80;99.90;;;;;;5032100;28;20124;-73
2023/12/01 04:44:10;;;;;;;40.20;24.10;;;-1.90;99.90;;;;;;5030803;28;20124;-73
2023/12/01 04:46:35;;;;;;;42.55;24.02;;;-1.90;99.90;;;;;;5032308;28;20045;-74
2023/12/01 04:49:01;;;;;;;41.53;24.20;;;-1.90;99.90;;;;;;5030804;28;20060;-73
2023/12/01 04:51:27;;;;;;;38.42;23.10;;;-1.90;99.90;;;;;;5032239;28;20095;-73
2023/12/01 04:53:52;;;;;;;39.90;22.15;;;-1.90;99.90;;;;;;5031267;28;20045;-74
2023/12/01 04:56:18;;;;;;;41.60;23.75;;;-1.90;99.90;;;;;;5031802;28;20057;-73
2023/12/01 04:58:44;;;;;;;41.70;23.80;;;-1.90;99.90;;;;;;5032348;28;20482;-74
2023/12/01 05:01:10;;;;;;;39.90;22.65;;;-1.50;99.90;;;;;;5031911;28;20049;-73
2023/12/01 05:03:36;;;;;;;40.58;23.33;;;-2.00;99.90;;;;;;5032251;28;20096;-74
2023/12/01 05:06:01;;;;;;;38.85;22.40;;;-1.90;99.90;;;;;;5031700;28;20445;-73
2023/12/01 05:08:27;;;;;;;37.50;22.60;;;-2.00;99.90;;;;;;5031122;28;20137;-74
2023/12/01 05:10:54;;;;;;;37.78;22.60;;;-2.00;99.90;;;;;;5031387;28;20479;-75
2023/12/01 05:13:20;;;;;;;38.58;23.02;;;-1.90;99.90;;;;;;5031733;28;20683;-74
2023/12/01 05:15:46;;;;;;;35.42;21.08;;;-2.00;99.90;;;;;;5032060;28;20087;-74
2023/12/01 05:18:12;;;;;;;34.80;20.60;;;-2.00;99.90;;;;;;5031395;28;20085;-74
2023/12/01 05:20:39;;;;;;;36.33;21.45;;;-2.00;99.90;;;;;;5030969;28;20045;-74
2023/12/01 05:23:09;;;;;;;34.63;20.90;;;-2.10;99.90;;;;;;5031631;28;20434;-73
2023/12/01 05:25:37;;;;;;;34.75;21.33;;;-2.10;99.90;;;;;;5031681;28;20495;-74
2023/12/01 05:28:05;;;;;;;37.20;22.23;;;-2.00;99.90;;;;;;5030165;28;20054;-73
2023/12/01 05:30:35;;;;;;;37.25;20.77;;;-2.10;99.90;;;;;;5032005;28;20128;-73
2023/12/01 05:33:02;;;;;;;34.92;20.40;;;-2.10;99.90;;;;;;5030929;28;20061;-74
2023/12/01 05:35:28;;;;;;;34.38;20.60;;;-2.10;99.90;;;;;;5031914;28;20060;-74
2023/12/01 05:37:55;;;;;;;34.25;19.80;;;-2.00;99.90;;;;;;5031716;28;20041;-74
2023/12/01 05:40:29;;;;;;;34.63;19.77;;;-2.00;99.90;;;;;;5032108;28;20457;-73
2023/12/01 05:42:57;;;;;;;31.52;19.75;;;-2.00;99.90;;;;;;5035625;28;20050;-74
2023/12/01 05:45:28;;;;;;;31.65;19.77;;;-1.30;99.90;;;;;;5034733;28;20144;-74
2023/12/01 05:47:55;;;;;;;33.17;20.95;;;-2.10;99.90;;;;;;5034445;28;20045;-74
2023/12/01 05:50:31;;;;;;;37.05;21.58;;;-2.20;99.90;;;;;;5034990;28;20146;-73
2023/12/01 05:53:06;;;;;;;32.35;19.90;;;-2.20;99.90;;;;;;5034561;28;20053;-73
2023/12/01 05:55:33;;;;;;;32.75;19.60;;;-2.20;99.90;;;;;;5034172;28;20069;-73
2023/12/01 05:58:10;;;;;;;32.85;19.73;;;-2.20;99.90;;;;;;5034046;28;20554;-73
2023/12/01 06:00:36;;;;;;;33.35;19.85;;;-2.20;99.90;;;;;;5035177;28;20085;-74
2023/12/01 06:03:06;;;;;;;32.50;19.77;;;-2.20;99.90;;;;;;5033910;28;20041;-73
2023/12/01 06:05:33;;;;;;;34.92;19.83;;;-2.10;99.90;;;;;;5034949;28;20056;-74
2023/12/01 06:08:00;;;;;;;33.55;19.90;;;-2.20;99.90;;;;;;5034145;28;20085;-73
2023/12/01 06:10:28;;;;;;;32.10;19.25;;;-1.70;99.90;;;;;;5034752;28;20052;-73
2023/12/01 06:12:55;;;;;;;31.75;18.70;;;-2.20;99.90;;;;;;5034922;28;20046;-73
2023/12/01 06:15:21;;;;;;;31.58;19.08;;;-1.40;99.90;;;;;;5033307;28;20479;-73
2023/12/01 06:17:49;;;;;;;32.47;19.83;;;-2.10;99.90;;;;;;5034086;28;20048;-73
2023/12/01 06:20:17;;;;;;;33.55;20.02;;;-2.10;99.90;;;;;;5033605;28;20107;-73
2023/12/01 06:22:56;;;;;;;30.65;19.65;;;-2.20;99.90;;;;;;5033493;28;20046;-73
2023/12/01 06:25:29;;;;;;;28.83;18.45;;;-1.90;99.90;;;;;;5033472;28;20049;-73
2023/12/01 06:27:57;;;;;;;30.77;18.02;;;-2.20;99.90;;;;;;5033236;28;20057;-73
2023/12/01 06:30:24;;;;;;;31.20;18.40;;;-2.20;99.90;;;;;;5034317;28;20064;-73
2023/12/01 06:32:50;;;;;;;28.80;18.77;;;-1.90;99.90;;;;;;5035137;28;20360;-74
2023/12/01 06:35:19;;;;;;;25.02;17.05;;;-2.20;99.90;;;;;;5034129;28;20096;-73
2023/12/01 06:37:45;;;;;;;26.80;17.25;;;-2.30;99.90;;;;;;5034489;28;20049;-74
2023/12/01 06:40:15;;;;;;;25.23;16.70;;;-1.60;99.90;;;;;;5034302;28;20052;-73
2023/12/01 06:42:45;;;;;;;28.67;18.00;;;-2.30;99.90;;;;;;5034332;28;20065;-73
2023/12/01 06:45:18;;;;;;;26.05;16.73;;;-2.30;99.90;;;;;;5034509;28;20124;-73
2023/12/01 06:47:46;;;;;;;29.05;18.30;;;-2.30;99.90;;;;;;5034230;28;20048;-73
2023/12/01 06:50:16;;;;;;;27.05;17.67;;;-2.00;99.90;;;;;;5034364;28;20045;-73
2023/12/01 06:52:43;;;;;;;27.52;17.73;;;-2.40;99.90;;;;;;5033353;28;20049;-73
2023/12/01 06:55:09;;;;;;;27.60;18.42;;;-2.30;99.90;;;;;;5034247;28;20048;-72
2023/12/01 06:57:43;;;;;;;26.05;17.40;;;-2.40;99.90;;;;;;5033897;28;20041;-72
2023/12/01 07:00:21;;;;;;;26.65;18.27;;;-2.40;99.90;;;;;;5032938;28;20042;-73
2023/12/01 07:02:48;;;;;;;25.45;17.55;;;-2.40;99.90;;;;;;5032720;28;20048;-73
2023/12/01 07:05:19;;;;;;;29.27;17.65;;;-1.80;99.90;;;;;;5033387;28;20119;-72
2023/12/01 07:07:47;;;;;;;26.95;18.13;;;-2.40;99.90;;;;;;5032816;28;20049;-73
2023/12/01 07:10:16;;;;;;;28.35;19.40;;;-2.50;99.90;;;;;;5033596;28;20052;-73
2023/12/01 07:12:42;;;;;;;31.08;18.02;;;-2.50;99.90;;;;;;5033590;28;20132;-73
2023/12/01 07:15:11;;;;;;;30.65;18.15;;;-2.50;99.90;;;;;;5032191;28;20124;-73
2023/12/01 07:17:40;;;;;;;30.10;19.58;;;-2.50;99.90;;;;;;5015915;28;20577;-73
2023/12/01 07:20:13;;;;;;;28.33;18.33;;;-2.50;99.90;;;;;;5033623;28;20049;-74
2023/12/01 07:22:40;;;;;;;31.42;19.30;;;-2.60;99.90;;;;;;5032729;28;20037;-74
2023/12/01 07:25:10;;;;;;;29.80;19.42;;;-1.90;99.90;;;;;;5031576;28;20133;-74
2023/12/01 07:27:40;;;;;;;31.33;19.70;;;-2.60;99.90;;;;;;5032256;28;20057;-73
2023/12/01 07:30:06;;;;;;;38.80;18.98;;;-2.70;99.90;;;;;;5015233;28;20414;-73
2023/12/01 07:32:33;;;;;;;32.88;19.27;;;-2.60;99.90;;;;;;5032922;28;20391;-73
2023/12/01 07:34:58;;;;;;;31.88;20.23;;;-2.60;99.90;;;;;;5032368;28;20045;-73
2023/12/01 07:37:24;;;;;;;34.97;20.42;;;-2.60;99.90;;;;;;5032871;28;20038;-74
2023/12/01 07:39:50;;;;;;;32.95;20.25;;;-2.70;99.90;;;;;;5032541;28;20049;-73
2023/12/01 07:42:16;;;;;;;36.58;21.85;;;-2.70;99.90;;;;;;5033212;28;20049;-75
2023/12/01 07:44:42;;;;;;;37.08;22.63;;;-2.70;99.90;;;;;;5032762;28;20053;-74
2023/12/01 07:47:11;;;;;;;43.15;24.92;;;-2.80;99.90;;;;;;5033213;28;20537;-75
2023/12/01 07:49:38;;;;;;;39.90;24.42;;;-2.80;99.90;;;;;;5032827;28;20053;-75
2023/12/01 07:52:06;;;;;;;44.38;25.58;;;-2.80;99.90;;;;;;5032078;28;20050;-76
2023/12/01 07:54:33;;;;;;;41.95;24.23;;;-2.80;99.90;;;;;;5032628;28;20053;-76
2023/12/01 07:56:59;;;;;;;40.20;23.90;;;-1.60;99.90;;;;;;5015455;28;20479;-76
2023/12/01 07:59:24;;;;;;;42.72;24.20;;;-2.70;99.90;;;;;;5032699;28;20060;-76
2023/12/01 08:01:51;;;;;;;43.65;24.30;;;-2.60;99.90;;;;;;5031515;28;20041;-77
2023/12/01 08:04:16;;;;;;;40.28;24.17;;;-2.60;99.90;;;;;;5015335;28;20086;-80
2023/12/01 08:06:42;;;;;;;41.90;23.02;;;-2.50;99.90;;;;;;5031291;28;20053;-79
2023/12/01 08:09:08;;;;;;;39.45;22.77;;;-2.50;99.90;;;;;;5032973;28;20056;-79
2023/12/01 08:11:34;;;;;;;38.72;23.35;;;-2.40;99.90;;;;;;5028757;28;20095;-80
2023/12/01 08:14:03;;;;;;;37.80;22.17;;;-2.40;99.90;;;;;;5031373;28;20124;-79
2023/12/01 08:16:29;;;;;;;37.95;23.23;;;-2.50;99.90;;;;;;5030703;28;20081;-76
2023/12/01 08:18:58;;;;;;;39.28;23.30;;;-2.50;99.90;;;;;;4998844;28;20064;-75
2023/12/01 08:21:24;;;;;;;39.13;22.40;;;-2.40;99.90;;;;;;5015389;28;20059;-75
2023/12/01 08:23:50;;;;;;;38.40;23.40;;;-2.40;99.90;;;;;;5032268;28;20117;-77
2023/12/01 08:26:15;;;;;;;40.33;24.10;;;-2.30;99.90;;;;;;5031853;28;20402;-78
2023/12/01 08:28:41;;;;;;;38.38;22.73;;;-2.30;99.90;;;;;;5014663;28;20487;-77
2023/12/01 08:31:07;;;;;;;38.88;22.98;;;-2.20;99.90;;;;;;5015533;28;20049;-76
2023/12/01 08:33:35;;;;;;;40.70;23.48;;;-2.20;99.90;;;;;;5011953;28;20041;-76
2023/12/01 08:36:01;;;;;;;34.75;20.60;;;-2.10;99.90;;;;;;5032328;28;20057;-76
2023/12/01 08:38:27;;;;;;;36.20;21.88;;;-2.10;99.90;;;;;;5031067;28;20045;-74
2023/12/01 08:40:53;;;;;;;33.28;21.48;;;-2.10;99.90;;;;;;5031111;28;20046;-76
2023/12/01 08:43:18;;;;;;;36.97;22.45;;;-2.10;99.90;;;;;;4998129;28;20087;-77
2023/12/01 08:45:44;;;;;;;37.58;21.50;;;-2.10;99.90;;;;;;5030887;28;20077;-75
2023/12/01 08:48:10;;;;;;;36.10;21.80;;;-2.10;99.90;;;;;;5030792;28;20041;-76
2023/12/01 08:50:35;;;;;;;34.42;22.38;;;-2.10;99.90;;;;;;5014445;28;20115;-76
2023/12/01 08:53:01;;;;;;;35.58;21.95;;;-2.00;99.90;;;;;;5031610;28;20111;-73
2023/12/01 08:55:36;;;;;;;36.58;22.35;;;-2.00;99.90;;;;;;5030168;28;20045;-75
2023/12/01 08:58:01;;;;;;;32.55;19.92;;;-2.00;99.90;;;;;;5032282;28;20045;-76
2023/12/01 09:00:27;;;;;;;35.90;21.92;;;-2.00;99.90;;;;;;5030827;28;20046;-74
2023/12/01 09:02:53;;;;;;;34.28;20.52;;;-1.60;99.90;;;;;;5030475;28;20038;-75
2023/12/01 09:05:19;;;;;;;30.38;20.13;;;-1.90;99.90;;;;;;5014531;28;20038;-74
2023/12/01 09:07:48;;;;;;;35.38;21.10;;;-1.90;99.90;;;;;;5014226;28;20056;-73
2023/12/01 09:10:15;;;;;;;33.70;20.95;;;-1.90;99.90;;;;;;5014556;28;20037;-73
2023/12/01 09:12:42;;;;;;;34.72;21.60;;;-1.80;99.90;;;;;;5030433;28;20091;-73
2023/12/01 09:15:09;;;;;;;33.20;21.50;;;-1.90;99.90;;;;;;5014934;28;20049;-74
2023/12/01 09:17:34;;;;;;;32.80;21.00;;;-1.90;99.90;;;;;;5034473;28;20049;-72
2023/12/01 09:20:00;;;;;;;33.90;20.48;;;-1.40;99.90;;;;;;5035706;28;20053;-73
2023/12/01 09:22:26;;;;;;;33.15;21.73;;;-1.40;99.90;;;;;;5034474;28;20054;-73
2023/12/01 09:24:52;;;;;;;33.85;21.08;;;-1.70;99.90;;;;;;5017861;28;20136;-72
2023/12/01 09:27:17;;;;;;;34.03;21.80;;;-1.60;99.90;;;;;;5035845;28;20063;-73
2023/12/01 09:29:43;;;;;;;33.47;21.67;;;-1.60;99.90;;;;;;5017197;28;20553;-73
2023/12/01 09:32:09;;;;;;;32.63;20.50;;;-1.50;99.90;;;;;;5034601;28;20459;-74
2023/12/01 09:34:35;;;;;;;30.25;19.98;;;-1.50;99.90;;;;;;5033696;28;20478;-74
2023/12/01 09:37:01;;;;;;;29.80;19.10;;;-1.50;99.90;;;;;;5034325;28;20490;-74
2023/12/01 09:39:26;;;;;;;28.38;18.75;;;-0.70;99.90;;;;;;5034062;28;20053;-72
2023/12/01 09:41:54;;;;;;;31.27;20.23;;;-1.30;99.90;;;;;;5035052;28;20094;-73
2023/12/01 09:44:19;;;;;;;31.33;20.50;;;-1.30;99.90;;;;;;5034868;28;20095;-73
2023/12/01 09:46:48;;;;;;;29.00;19.30;;;-1.30;99.90;;;;;;5033929;28;20442;-72
2023/12/01 09:49:14;;;;;;;29.48;19.48;;;-1.30;99.90;;;;;;5034235;28;20665;-73
2023/12/01 09:51:40;;;;;;;30.00;19.92;;;-1.30;99.90;;;;;;5034944;28;20049;-73
2023/12/01 09:54:06;;;;;;;28.90;19.70;;;-1.20;99.90;;;;;;5034265;28;20503;-74
2023/12/01 09:56:31;;;;;;;29.80;19.38;;;-1.30;99.90;;;;;;5034062;28;20107;-74
2023/12/01 09:58:58;;;;;;;27.75;18.83;;;-1.20;99.90;;;;;;5035178;28;20073;-73
2023/12/01 10:01:24;;;;;;;28.15;18.45;;;-1.20;99.90;;;;;;5033874;28;20053;-74
2023/12/01 10:03:52;;;;;;;27.17;17.85;;;-1.20;99.90;;;;;;5033424;28;20048;-74
2023/12/01 10:06:18;;;;;;;26.98;18.20;;;-1.10;99.90;;;;;;5034002;28;20475;-73
2023/12/01 10:08:44;;;;;;;26.08;17.45;;;-1.10;99.90;;;;;;5034337;28;20094;-73
2023/12/01 10:11:24;;;;;;;27.63;18.17;;;-1.10;99.90;;;;;;5033724;28;20489;-74
2023/12/01 10:13:51;;;;;;;29.08;18.15;;;-1.10;99.90;;;;;;5034408;28;20072;-73
2023/12/01 10:16:18;;;;;;;27.90;18.30;;;-1.00;99.90;;;;;;5033727;28;20128;-72
2023/12/01 10:19:05;;;;;;;28.42;18.70;;;-1.00;99.90;;;;;;5034662;28;20052;-73
2023/12/01 10:21:49;;;;;;;28.05;19.10;;;-1.00;99.90;;;;;;5034772;28;20037;-73
2023/12/01 10:24:22;;;;;;;26.45;16.52;;;-1.00;99.90;;;;;;5032830;28;20053;-72
2023/12/01 10:26:54;;;;;;;27.60;18.98;;;-1.00;99.90;;;;;;5033178;28;20084;-72
2023/12/01 10:29:24;;;;;;;28.08;18.27;;;-1.00;99.90;;;;;;5033231;28;20054;-74
2023/12/01 10:31:50;;;;;;;27.70;18.60;;;-0.50;99.90;;;;;;5032885;28;20081;-73
2023/12/01 10:34:16;;;;;;;28.02;19.02;;;-1.00;99.90;;;;;;5034244;28;20076;-75
2023/12/01 10:36:42;;;;;;;30.30;19.38;;;-0.90;99.90;;;;;;5033938;28;20136;-72
2023/12/01 10:39:10;;;;;;;28.25;18.98;;;-0.90;99.90;;;;;;5034471;28;20120;-73
2023/12/01 10:41:39;;;;;;;28.02;18.88;;;-0.90;99.90;;;;;;5016723;28;20053;-73
2023/12/01 10:44:06;;;;;;;26.95;18.17;;;-0.90;99.90;;;;;;5033757;28;20144;-73
2023/12/01 10:46:34;;;;;;;28.55;18.10;;;-0.90;99.90;;;;;;5034224;28;20134;-74
2023/12/01 10:49:01;;;;;;;30.10;18.88;;;-0.90;99.90;;;;;;5032466;28;20241;-73
2023/12/01 10:51:28;;;;;;;27.50;18.38;;;-0.80;99.90;;;;;;5034267;28;20364;-75
2023/12/01 10:53:57;;;;;;;27.52;18.60;;;-0.80;99.90;;;;;;5033773;28;20077;-75
2023/12/01 10:56:24;;;;;;;27.65;17.48;;;-0.70;99.90;;;;;;5034142;28;20085;-75
2023/12/01 10:58:53;;;;;;;27.67;18.63;;;0.00;99.90;;;;;;5032376;28;20055;-76
2023/12/01 11:01:22;;;;;;;28.60;18.45;;;-0.70;99.90;;;;;;5016265;28;20442;-74
2023/12/01 11:03:49;;;;;;;27.10;16.80;;;-0.60;99.90;;;;;;5032353;28;20049;-74
2023/12/01 11:06:41;;;;;;;28.33;17.92;;;-0.60;99.90;;;;;;5032992;28;20123;-74
2023/12/01 11:09:16;;;;;;;26.23;17.83;;;0.00;99.90;;;;;;5033446;28;20049;-73
2023/12/01 11:12:02;;;;;;;26.27;17.35;;;-0.70;99.90;;;;;;5034017;28;20049;-71
2023/12/01 11:14:29;;;;;;;30.60;18.75;;;-0.60;99.90;;;;;;5016620;28;20049;-73
2023/12/01 11:16:54;;;;;;;30.95;19.45;;;-0.50;99.90;;;;;;5033166;28;20458;-74
2023/12/01 11:19:23;;;;;;;28.88;18.65;;;-0.50;99.90;;;;;;5034793;28;20045;-75
2023/12/01 11:21:56;;;;;;;30.02;18.85;;;-0.50;99.90;;;;;;5015716;28;20060;-76
2023/12/01 11:24:26;;;;;;;31.58;17.30;;;-0.60;99.90;;;;;;5032266;28;20402;-75
2023/12/01 11:26:53;;;;;;;30.05;18.92;;;-0.60;99.90;;;;;;5031828;28;20068;-76
2023/12/01 11:29:28;;;;;;;25.88;17.10;;;-0.60;99.90;;;;;;5031750;28;20057;-75
2023/12/01 11:31:57;;;;;;;27.88;18.02;;;-0.60;99.90;;;;;;5031951;28;20038;-75
2023/12/01 11:34:25;;;;;;;28.13;18.00;;;-0.40;99.90;;;;;;5016144;28;20102;-75
2023/12/01 11:36:52;;;;;;;28.88;18.58;;;-0.60;99.90;;;;;;5031934;28;20053;-75
2023/12/01 11:39:32;;;;;;;26.50;17.15;;;-0.70;99.90;;;;;;5031847;28;20057;-75
2023/12/01 11:41:57;;;;;;;26.17;16.75;;;-0.70;99.90;;;;;;5031775;28;20049;-75
2023/12/01 11:44:35;;;;;;;24.73;15.95;;;-0.60;99.90;;;;;;5032160;28;20123;-75
2023/12/01 11:47:04;;;;;;;26.55;17.23;;;-0.60;99.90;;;;;;5031908;28;20380;-74
2023/12/01 11:49:38;;;;;;;27.60;17.80;;;-0.60;99.90;;;;;;5031938;28;20403;-75
2023/12/01 11:52:07;;;;;;;27.50;17.45;;;-0.60;99.90;;;;;;5031742;28;20053;-75
2023/12/01 11:54:35;;;;;;;29.48;17.85;;;-0.50;99.90;;;;;;5015397;28;20341;-74
2023/12/01 11:57:02;;;;;;;27.38;18.48;;;-0.50;99.90;;;;;;5031280;28;20143;-75
2023/12/01 11:59:28;;;;;;;28.58;19.30;;;-0.50;99.90;;;;;;5032146;28;20128;-75
2023/12/01 12:01:55;;;;;;;29.02;18.95;;;-0.50;99.90;;;;;;5030922;28;20057;-75
2023/12/01 12:04:22;;;;;;;31.02;19.58;;;-0.40;99.90;;;;;;5031824;28;20402;-74
2023/12/01 12:06:49;;;;;;;27.40;17.83;;;-0.50;99.90;;;;;;5031992;28;20056;-76
2023/12/01 12:09:19;;;;;;;27.08;18.13;;;-0.50;99.90;;;;;;5031513;28;20053;-76
2023/12/01 12:11:48;;;;;;;27.20;18.20;;;0.00;99.90;;;;;;5015389;28;20056;-76
2023/12/01 12:14:14;;;;;;;27.15;18.52;;;-0.20;99.90;;;;;;5031454;28;20365;-75
2023/12/01 12:16:41;;;;;;;29.42;19.25;;;-0.60;99.90;;;;;;5031870;28;20123;-75
2023/12/01 12:19:08;;;;;;;26.40;18.17;;;-0.60;99.90;;;;;;5014603;28;20068;-74
2023/12/01 12:21:35;;;;;;;26.27;18.45;;;-0.50;99.90;;;;;;5031818;28;20072;-74
2023/12/01 12:24:01;;;;;;;28.45;18.38;;;-0.60;99.90;;;;;;5032229;28;20045;-74
2023/12/01 12:26:28;;;;;;;25.80;17.45;;;-0.60;99.90;;;;;;5031585;28;20041;-75
2023/12/01 12:28:56;;;;;;;27.75;18.05;;;-0.60;99.90;;;;;;5014690;28;20099;-75